Time;durP1;ratioP1;P1;durP2;ratioP2;P2;SDS_P1;SDS_P2;PMS_P1;PMS_P2;Temp;Humidity;BMP_temperature;BMP_pressure;BME280_temperature;BME280_humidity;BME280_pressure;Samples;Min_cycle;Max_cycle;Signal;HPM_P1;HPM_P2
2023/03/31 00:02:12;;;;;;;39.72;22.27;;;;;;;16.64;49.13;92972.81;4978908;28;20052;-89
2023/03/31 00:04:44;;;;;;;40.80;23.55;;;;;;;16.63;49.28;92963.13;4981012;28;20046;-91
2023/03/31 00:07:12;;;;;;;39.85;23.38;;;;;;;16.65;49.25;92971.56;4996769;28;20041;-90
2023/03/31 00:09:39;;;;;;;38.50;22.48;;;;;;;16.66;49.38;92967.59;4979487;28;20033;-90
2023/03/31 00:12:05;;;;;;;36.28;22.77;;;;;;;16.65;49.18;92971.56;4998044;28;20125;-91
2023/03/31 00:14:30;;;;;;;38.80;23.42;;;;;;;16.67;49.21;92964.31;4992482;28;20117;-90
2023/03/31 00:16:57;;;;;;;35.00;23.45;;;;;;;16.64;49.17;92957.19;5011189;28;20041;-92
2023/03/31 00:19:23;;;;;;;41.60;22.02;;;;;;;16.64;49.01;92961.91;4974612;28;20401;-90
2023/03/31 00:21:50;;;;;;;36.10;23.23;;;;;;;16.65;49.34;92958.66;5010809;28;20080;-89
2023/03/31 00:24:16;;;;;;;34.67;21.52;;;;;;;16.68;49.21;92965.06;5008477;28;20033;-91
2023/03/31 00:26:41;;;;;;;35.40;22.52;;;;;;;16.65;49.11;92958.66;4976166;28;20136;-90
2023/03/31 00:29:07;;;;;;;37.45;22.60;;;;;;;16.67;49.08;92963.59;4995116;28;20046;-90
2023/03/31 00:31:33;;;;;;;38.33;22.75;;;;;;;16.67;48.92;92953.41;4976038;28;20134;-90
2023/03/31 00:33:58;;;;;;;35.95;23.13;;;;;;;16.65;49.20;92955.94;5001241;28;20125;-91
2023/03/31 00:36:27;;;;;;;32.97;21.50;;;;;;;16.65;49.31;92930.63;4978778;28;20049;-92
2023/03/31 00:39:01;;;;;;;40.13;21.98;;;;;;;16.64;48.78;92921.69;4979721;28;20061;-90
2023/03/31 00:41:27;;;;;;;33.88;21.20;;;;;;;16.64;49.05;92937.34;4980381;28;20099;-92
2023/03/31 00:44:05;;;;;;;37.00;21.40;;;;;;;16.66;49.07;92930.13;5014857;28;20056;-90
2023/03/31 00:46:41;;;;;;;30.92;21.48;;;;;;;16.62;49.04;92932.34;5009343;28;20049;-90
2023/03/31 00:49:22;;;;;;;35.47;21.38;;;;;;;16.63;49.24;92939.31;5034986;28;20049;-90
2023/03/31 00:51:48;;;;;;;31.50;20.90;;;;;;;16.63;49.20;92922.19;5019576;28;20131;-91
2023/03/31 00:54:14;;;;;;;38.45;19.98;;;;;;;16.68;49.09;92915.94;5050492;28;20032;-91
2023/03/31 00:56:41;;;;;;;43.83;21.55;;;;;;;16.63;48.80;92912.03;5027201;28;20037;-90
2023/03/31 00:59:09;;;;;;;35.58;20.85;;;;;;;16.61;49.25;92921.94;5014088;28;20048;-90
2023/03/31 01:01:35;;;;;;;29.67;19.73;;;;;;;16.63;48.92;92905.81;5025174;28;20381;-91
2023/03/31 01:04:01;;;;;;;36.30;19.90;;;;;;;16.59;48.98;92899.88;5034147;28;20040;-90
2023/03/31 01:06:29;;;;;;;31.58;19.02;;;;;;;16.62;49.05;92896.16;5017715;28;20037;-90
2023/03/31 01:08:55;;;;;;;30.42;18.60;;;;;;;16.65;49.10;92884.97;5034641;28;20037;-90
2023/03/31 01:11:21;;;;;;;31.73;19.77;;;;;;;16.59;49.39;92884.25;5016784;28;20376;-91
2023/03/31 01:13:49;;;;;;;36.92;21.13;;;;;;;16.58;49.02;92871.13;4995597;28;20410;-90
2023/03/31 01:16:14;;;;;;;32.90;21.27;;;;;;;16.58;49.10;92873.84;5028109;28;20037;-90
2023/03/31 01:18:40;;;;;;;36.45;20.10;;;;;;;16.61;49.08;92864.66;4990451;28;20041;-90
2023/03/31 01:21:24;;;;;;;32.88;19.05;;;;;;;16.61;49.25;92864.66;5005684;28;20041;-91
2023/03/31 01:24:16;;;;;;;32.15;20.27;;;;;;;16.60;49.20;92869.38;5030835;28;20075;-90
2023/03/31 01:27:12;;;;;;;32.22;20.98;;;;;;;16.61;48.77;92859.94;5030080;28;20033;-90
2023/03/31 01:30:06;;;;;;;36.15;20.15;;;;;;;16.57;49.25;92840.38;5030207;28;20094;-90
2023/03/31 01:32:57;;;;;;;33.80;19.63;;;;;;;16.59;48.91;92842.59;5004893;28;20131;-90
2023/03/31 01:35:22;;;;;;;30.95;19.50;;;;;;;16.61;49.37;92842.81;5045890;28;20056;-90
2023/03/31 01:38:03;;;;;;;34.33;18.88;;;;;;;16.59;49.25;92839.84;5046583;28;20049;-91
2023/03/31 01:40:40;;;;;;;30.95;19.17;;;;;;;16.62;48.99;92845.03;5047354;28;20037;-90
2023/03/31 01:43:27;;;;;;;28.77;19.23;;;;;;;16.60;49.23;92838.59;5034688;28;20052;-91
2023/03/31 01:46:00;;;;;;;28.00;18.38;;;;;;;16.59;48.94;92835.13;5047701;28;20064;-90
2023/03/31 01:48:36;;;;;;;31.20;19.85;;;;;;;16.58;49.11;92833.66;5013898;28;20496;-91
2023/03/31 01:51:11;;;;;;;37.85;18.92;;;;;;;16.55;48.82;92833.94;5027325;28;20066;-90
2023/03/31 01:53:55;;;;;;;28.17;17.02;;;;;;;16.62;48.77;92817.75;5026549;28;20062;-90
2023/03/31 01:56:30;;;;;;;30.10;18.58;;;;;;;16.57;48.87;92823.25;5029037;28;20045;-92
2023/03/31 01:58:58;;;;;;;29.48;18.30;;;;;;;16.57;49.07;92817.81;5013546;28;20067;-91
2023/03/31 02:01:29;;;;;;;27.63;18.27;;;;;;;16.56;48.75;92808.13;5001051;28;20070;-90
2023/03/31 02:03:57;;;;;;;30.15;18.50;;;;;;;16.57;48.95;92790.50;5012119;28;20040;-89
2023/03/31 02:06:26;;;;;;;28.98;18.20;;;;;;;16.54;49.10;92811.38;5040666;28;20138;-90
2023/03/31 02:08:57;;;;;;;26.58;17.08;;;;;;;16.60;48.75;92811.31;5010018;28;20065;-89
2023/03/31 02:11:22;;;;;;;;;;;;;;;16.60;48.75;92797.69;5026125;28;20045;-90
2023/03/31 02:13:48;;;;;;;25.17;17.20;;;;;;;16.57;48.73;92793.97;5010784;28;19935;-90
2023/03/31 02:16:17;;;;;;;29.70;17.25;;;;;;;16.59;48.68;92791.47;5016010;28;20327;-90
2023/03/31 02:18:43;;;;;;;28.20;17.42;;;;;;;16.51;49.01;92795.28;5043898;28;20068;-91
2023/03/31 02:21:08;;;;;;;27.95;17.27;;;;;;;16.62;49.05;92785.00;5028859;28;20389;-91
2023/03/31 02:23:34;;;;;;;25.40;17.10;;;;;;;16.57;48.93;92785.78;5008321;28;20045;-91
2023/03/31 02:26:10;;;;;;;29.75;17.90;;;;;;;16.60;48.63;92787.50;4998603;28;20048;-89
2023/03/31 02:28:36;;;;;;;26.13;16.55;;;;;;;16.61;48.84;92774.59;5013114;28;20568;-91
2023/03/31 02:31:22;;;;;;;27.70;17.00;;;;;;;16.54;48.89;92784.09;5013687;28;20037;-90
2023/03/31 02:33:48;;;;;;;26.17;16.77;;;;;;;16.53;48.96;92785.34;5041077;28;20040;-89
2023/03/31 02:36:13;;;;;;;25.30;16.40;;;;;;;16.58;48.95;92778.34;5012379;28;20399;-92
2023/03/31 02:38:42;;;;;;;27.55;16.88;;;;;;;16.53;48.72;92785.34;5014619;28;20500;-90
2023/03/31 02:41:08;;;;;;;25.35;16.48;;;;;;;16.57;48.85;92780.34;4996985;28;20048;-89
2023/03/31 02:43:33;;;;;;;26.13;15.32;;;;;;;16.54;48.35;92769.72;5008892;28;20041;-92
2023/03/31 02:45:58;;;;;;;25.58;15.77;;;;;;;16.52;49.03;92770.22;5009475;28;20044;-91
2023/03/31 02:48:26;;;;;;;25.38;15.98;;;;;;;16.56;48.86;92773.41;4976548;28;20504;-91
2023/03/31 02:51:07;;;;;;;23.15;16.02;;;;;;;16.55;49.04;92760.28;4993392;28;20056;-90
2023/03/31 02:53:38;;;;;;;24.63;15.30;;;;;;;16.58;48.59;92764.72;5008472;28;20091;-90
2023/03/31 02:56:15;;;;;;;24.17;16.92;;;;;;;16.54;48.68;92758.81;5008361;28;20117;-89
2023/03/31 02:58:46;;;;;;;26.27;15.82;;;;;;;16.55;48.68;92755.56;5009234;28;20468;-90
2023/03/31 03:01:22;;;;;;;23.33;16.52;;;;;;;16.59;48.66;92744.34;4992164;28;20049;-91
2023/03/31 03:04:17;;;;;;;23.58;15.77;;;;;;;16.57;48.83;92742.13;4977107;28;20515;-90
2023/03/31 03:06:43;;;;;;;24.67;15.73;;;;;;;16.55;49.00;92744.66;5011592;28;20120;-90
2023/03/31 03:09:21;;;;;;;20.73;13.98;;;;;;;16.55;48.91;92738.44;5026647;28;20034;-90
2023/03/31 03:12:01;;;;;;;21.67;15.65;;;;;;;16.54;48.69;92739.69;5012236;28;20043;-90
2023/03/31 03:14:33;;;;;;;25.38;15.65;;;;;;;16.52;48.73;92742.94;5016905;28;21102;-90
2023/03/31 03:17:05;;;;;;;23.42;15.05;;;;;;;16.52;48.82;92745.66;4977934;28;20042;-92
2023/03/31 03:19:30;;;;;;;23.35;14.93;;;;;;;16.58;48.63;92734.69;4993547;28;20038;-90
2023/03/31 03:21:55;;;;;;;20.45;14.95;;;;;;;16.53;48.82;92728.03;4992607;28;20095;-90
2023/03/31 03:24:22;;;;;;;22.77;14.77;;;;;;;16.54;48.51;92723.31;4991864;28;20042;-90
2023/03/31 03:26:48;;;;;;;22.95;15.07;;;;;;;16.52;48.46;92717.66;4993596;28;20056;-91
2023/03/31 03:29:13;;;;;;;19.85;14.00;;;;;;;16.55;48.50;92716.63;5025942;28;20575;-91
2023/03/31 03:31:41;;;;;;;21.58;14.63;;;;;;;16.51;48.57;92713.44;5008605;28;20049;-90
2023/03/31 03:34:08;;;;;;;20.75;14.10;;;;;;;16.49;48.52;92711.22;4976066;28;20132;-90
2023/03/31 03:36:36;;;;;;;21.52;14.27;;;;;;;16.50;48.67;92707.25;4992286;28;20092;-90
2023/03/31 03:39:02;;;;;;;17.88;13.32;;;;;;;16.54;48.23;92709.69;4992618;28;20046;-91
2023/03/31 03:41:28;;;;;;;21.83;14.73;;;;;;;16.53;48.70;92692.56;5028869;28;20044;-91
2023/03/31 03:43:53;;;;;;;23.15;14.07;;;;;;;16.53;48.84;92686.38;5030398;28;20037;-91
2023/03/31 03:46:19;;;;;;;18.95;13.52;;;;;;;16.50;48.65;92682.69;5031116;28;20036;-90
2023/03/31 03:48:45;;;;;;;23.65;14.32;;;;;;;16.51;48.72;92678.72;5048708;28;20565;-90
2023/03/31 03:51:10;;;;;;;18.25;13.35;;;;;;;16.51;48.58;92677.97;5031295;28;20041;-91
2023/03/31 03:53:35;;;;;;;19.08;13.77;;;;;;;16.52;48.36;92669.28;5031722;28;20105;-90
2023/03/31 03:56:01;;;;;;;20.92;14.07;;;;;;;16.49;48.67;92675.03;5016075;28;20064;-91
2023/03/31 03:58:26;;;;;;;23.10;14.07;;;;;;;16.53;48.66;92664.56;4998253;28;20666;-92
2023/03/31 04:00:52;;;;;;;20.80;13.05;;;;;;;16.51;48.41;92659.63;4999152;28;20061;-90
2023/03/31 04:03:17;;;;;;;21.13;14.32;;;;;;;16.51;48.70;92665.06;5049204;28;20048;-90
2023/03/31 04:05:43;;;;;;;23.20;16.00;;;;;;;16.54;48.57;92658.59;5040763;28;20407;-90
2023/03/31 04:08:08;;;;;;;24.55;15.32;;;;;;;16.50;48.83;92649.97;5031817;28;20504;-91
2023/03/31 04:10:34;;;;;;;19.02;13.95;;;;;;;16.56;48.81;92645.16;5014919;28;20048;-90
2023/03/31 04:13:00;;;;;;;22.08;14.40;;;;;;;16.48;48.67;92646.25;5002142;28;20087;-91
2023/03/31 04:15:25;;;;;;;21.27;13.25;;;;;;;16.49;48.61;92656.66;5021185;28;20033;-90
2023/03/31 04:17:53;;;;;;;20.95;13.25;;;;;;;16.45;48.33;92648.78;5012461;28;20042;-90
2023/03/31 04:20:18;;;;;;;22.13;13.57;;;;;;;16.44;48.67;92655.50;5015274;28;20048;-91
2023/03/31 04:22:46;;;;;;;21.83;14.23;;;;;;;16.49;48.50;92653.19;5012234;28;20029;-90
2023/03/31 04:25:15;;;;;;;20.35;13.32;;;;;;;16.49;48.30;92640.28;5006803;28;20527;-90
2023/03/31 04:27:49;;;;;;;20.52;13.25;;;;;;;16.46;48.53;92642.06;5015738;28;20036;-90
2023/03/31 04:30:24;;;;;;;23.85;14.32;;;;;;;16.45;48.93;92648.06;4995631;28;20132;-90
2023/03/31 04:32:57;;;;;;;21.80;14.23;;;;;;;16.55;48.82;92643.69;5030074;28;20044;-90
2023/03/31 04:35:24;;;;;;;18.20;12.88;;;;;;;16.56;48.62;92633.50;5014653;28;20067;-91
2023/03/31 04:37:51;;;;;;;19.08;13.07;;;;;;;16.48;48.75;92627.16;5032218;28;20124;-90
2023/03/31 04:40:16;;;;;;;19.20;12.85;;;;;;;16.50;48.58;92616.47;5016351;28;20030;-91
2023/03/31 04:42:42;;;;;;;16.98;11.85;;;;;;;16.53;48.71;92618.91;5015233;28;20423;-92
2023/03/31 04:45:08;;;;;;;18.60;12.43;;;;;;;16.45;48.32;92616.03;4998056;28;20070;-89
2023/03/31 04:47:34;;;;;;;16.83;11.88;;;;;;;16.46;48.86;92617.50;5014215;28;20065;-90
2023/03/31 04:49:59;;;;;;;18.77;12.45;;;;;;;16.48;48.41;92608.06;5014747;28;20052;-92
2023/03/31 04:52:25;;;;;;;16.33;11.52;;;;;;;16.50;48.29;92611.03;4998036;28;20044;-91
2023/03/31 04:54:50;;;;;;;16.85;11.57;;;;;;;16.47;48.54;92601.88;5010678;28;20049;-91
2023/03/31 04:57:15;;;;;;;16.48;11.70;;;;;;;16.49;48.50;92596.66;5002026;28;20037;-90
2023/03/31 04:59:41;;;;;;;17.55;11.93;;;;;;;16.44;48.54;92606.41;5011061;28;20100;-90
2023/03/31 05:02:06;;;;;;;16.42;11.70;;;;;;;16.50;48.46;92592.66;5027847;28;20045;-91
2023/03/31 05:04:32;;;;;;;14.20;11.10;;;;;;;16.49;48.59;92596.66;5009904;28;20049;-90
2023/03/31 05:06:57;;;;;;;15.35;10.75;;;;;;;16.48;48.51;92586.25;5011081;28;20053;-91
2023/03/31 05:09:23;;;;;;;16.05;11.25;;;;;;;16.51;48.62;92577.03;5029654;28;20049;-89
2023/03/31 05:11:48;;;;;;;14.60;10.32;;;;;;;16.44;48.69;92572.94;5013727;28;20049;-89
2023/03/31 05:14:13;;;;;;;15.63;10.20;;;;;;;16.46;48.26;92579.31;5025303;28;20045;-90
2023/03/31 05:16:40;;;;;;;14.10;10.38;;;;;;;16.48;48.39;92575.34;5030436;28;20112;-90
2023/03/31 05:19:06;;;;;;;15.35;10.10;;;;;;;16.48;48.53;92578.06;5030326;28;20112;-89
2023/03/31 05:21:31;;;;;;;16.85;11.20;;;;;;;16.51;48.41;92577.78;5013685;28;20045;-90
2023/03/31 05:23:57;;;;;;;17.48;10.07;;;;;;;16.48;48.40;92581.53;5048200;28;20094;-90
2023/03/31 05:26:24;;;;;;;13.68;10.07;;;;;;;16.52;48.50;92573.78;5011094;28;20045;-90
2023/03/31 05:28:51;;;;;;;14.77;10.10;;;;;;;16.53;48.20;92580.72;5021916;28;20523;-89
2023/03/31 05:31:16;;;;;;;14.13;9.80;;;;;;;16.46;48.62;92570.41;5026079;28;20044;-89
2023/03/31 05:33:42;;;;;;;13.57;9.73;;;;;;;16.54;48.48;92562.34;4994483;28;20041;-90
2023/03/31 05:36:11;;;;;;;15.25;10.15;;;;;;;16.58;48.45;92563.53;4998683;28;20041;-91
2023/03/31 05:38:36;;;;;;;14.60;9.90;;;;;;;16.49;48.30;92563.16;5020434;28;20765;-90
2023/03/31 05:41:02;;;;;;;13.98;9.05;;;;;;;16.48;48.48;92561.69;5017432;28;20129;-90
2023/03/31 05:43:27;;;;;;;13.50;8.20;;;;;;;16.45;48.27;92550.56;4991194;28;20044;-90
2023/03/31 05:45:53;;;;;;;13.25;8.85;;;;;;;16.51;48.30;92545.03;5013497;28;20503;-90
2023/03/31 05:48:18;;;;;;;15.07;8.35;;;;;;;16.47;48.41;92536.41;5026524;28;20060;-90
2023/03/31 05:50:44;;;;;;;16.45;8.43;;;;;;;16.50;48.29;92543.56;5010231;28;20037;-91
2023/03/31 05:53:09;;;;;;;12.90;8.77;;;;;;;16.51;48.10;92534.13;4983482;28;20069;-90
2023/03/31 05:55:35;;;;;;;15.25;8.50;;;;;;;16.49;48.41;92533.91;5031143;28;20045;-89
2023/03/31 05:58:00;;;;;;;13.68;8.90;;;;;;;16.49;48.18;92533.91;5011335;28;20484;-89
2023/03/31 06:00:26;;;;;;;11.85;7.40;;;;;;;16.47;48.28;92539.13;5012862;28;20360;-91
2023/03/31 06:02:51;;;;;;;15.38;8.68;;;;;;;16.56;48.38;92532.56;5010835;28;20045;-90
2023/03/31 06:05:17;;;;;;;14.43;8.27;;;;;;;16.47;48.20;92539.13;5008655;28;20044;-90
2023/03/31 06:07:42;;;;;;;11.70;7.60;;;;;;;16.50;48.31;92543.56;5010106;28;20052;-89
2023/03/31 06:10:09;;;;;;;14.43;8.10;;;;;;;16.45;48.38;92536.94;5024262;28;20041;-90
2023/03/31 06:12:35;;;;;;;15.38;8.13;;;;;;;16.46;48.45;92530.22;5008208;28;20045;-90
2023/03/31 06:15:00;;;;;;;10.73;7.38;;;;;;;16.49;47.98;92533.91;5022211;28;20106;-89
2023/03/31 06:17:26;;;;;;;11.32;8.02;;;;;;;16.48;48.24;92521.50;5004517;28;20034;-91
2023/03/31 06:19:52;;;;;;;15.80;7.47;;;;;;;16.47;48.38;92525.50;4988671;28;20045;-89
2023/03/31 06:22:17;;;;;;;15.43;7.65;;;;;;;16.48;48.59;92526.97;5025932;28;20033;-91
2023/03/31 06:24:42;;;;;;;12.55;7.78;;;;;;;16.52;48.29;92521.94;5002283;28;20037;-91
2023/03/31 06:27:08;;;;;;;15.80;8.13;;;;;;;16.50;48.34;92515.53;5016747;28;20041;-90
2023/03/31 06:29:33;;;;;;;16.33;8.05;;;;;;;16.58;48.05;92513.69;5013090;28;20131;-90
2023/03/31 06:32:00;;;;;;;19.70;8.18;;;;;;;16.52;48.38;92507.56;5020217;28;20519;-92
2023/03/31 06:34:26;;;;;;;17.13;8.95;;;;;;;16.45;48.07;92504.19;4996713;28;20049;-90
2023/03/31 06:36:52;;;;;;;31.05;11.23;;;;;;;16.51;48.36;92509.56;5021834;28;20075;-90
2023/03/31 06:39:17;;;;;;;19.80;9.77;;;;;;;16.61;48.09;92502.47;5028676;28;20575;-90
2023/03/31 06:41:43;;;;;;;29.35;11.00;;;;;;;16.59;48.50;92506.97;5009117;28;20095;-91
2023/03/31 06:44:08;;;;;;;20.52;9.95;;;;;;;16.50;48.35;92491.72;5026171;28;20655;-90
2023/03/31 06:46:33;;;;;;;25.27;11.18;;;;;;;16.53;48.01;92506.31;4972074;28;20042;-91
2023/03/31 06:48:59;;;;;;;18.08;12.70;;;;;;;16.58;48.04;92494.59;4956204;28;20060;-90
2023/03/31 06:51:24;;;;;;;21.42;12.02;;;;;;;16.58;48.40;92498.06;4955488;28;20042;-90
2023/03/31 06:53:50;;;;;;;27.65;12.80;;;;;;;16.51;48.31;92495.94;4956803;28;20054;-92
2023/03/31 06:56:15;;;;;;;23.15;12.15;;;;;;;16.53;48.33;92485.22;4950932;28;20038;-90
2023/03/31 06:58:41;;;;;;;25.55;12.05;;;;;;;16.50;48.30;92483.53;4944360;28;20433;-90
2023/03/31 07:01:06;;;;;;;22.40;12.80;;;;;;;16.48;48.19;92482.59;4968690;28;20070;-90
2023/03/31 07:03:31;;;;;;;24.67;12.60;;;;;;;16.52;48.73;92477.56;4952989;28;20046;-91
2023/03/31 07:05:57;;;;;;;19.55;10.40;;;;;;;16.49;48.19;92475.88;4977881;28;20120;-90
2023/03/31 07:08:23;;;;;;;17.92;11.32;;;;;;;16.48;48.35;92468.94;4987448;28;20074;-90
2023/03/31 07:10:49;;;;;;;21.42;10.07;;;;;;;16.49;48.53;92467.69;4955483;28;20034;-90
2023/03/31 07:13:15;;;;;;;20.63;10.48;;;;;;;16.48;48.26;92463.50;4936849;28;20043;-90
2023/03/31 07:15:40;;;;;;;21.08;10.15;;;;;;;16.49;48.54;92465.69;4956642;28;20625;-89
2023/03/31 07:18:05;;;;;;;21.88;11.50;;;;;;;16.55;48.64;92452.72;4997156;28;20067;-89
2023/03/31 07:20:31;;;;;;;21.00;10.40;;;;;;;16.59;48.60;92458.59;5011966;28;20385;-90
2023/03/31 07:22:58;;;;;;;21.27;10.93;;;;;;;16.54;48.50;92447.78;5012348;28;20527;-89
2023/03/31 07:25:24;;;;;;;16.65;9.25;;;;;;;16.63;48.23;92437.22;4994807;28;20459;-89
2023/03/31 07:27:49;;;;;;;16.70;9.85;;;;;;;16.64;48.45;92437.97;5028070;28;20048;-88
2023/03/31 07:30:16;;;;;;;21.85;9.45;;;;;;;16.54;48.37;92436.88;5028662;28;20037;-90
2023/03/31 07:32:42;;;;;;;14.48;8.90;;;;;;;16.51;48.19;92427.00;5007927;28;20030;-91
2023/03/31 07:35:08;;;;;;;14.05;9.10;;;;;;;16.56;48.09;92410.53;5007978;28;20029;-90
2023/03/31 07:37:36;;;;;;;16.52;8.60;;;;;;;16.49;48.58;92405.69;5014652;28;20048;-89
2023/03/31 07:40:04;;;;;;;20.33;8.70;;;;;;;16.44;48.32;92401.81;5000941;28;20505;-89
2023/03/31 07:42:29;;;;;;;21.75;9.80;;;;;;;16.45;48.49;92395.06;5008019;28;20128;-89
2023/03/31 07:44:56;;;;;;;16.00;8.85;;;;;;;16.42;48.78;92395.41;5016475;28;20041;-89
2023/03/31 07:47:23;;;;;;;14.10;9.25;;;;;;;16.41;48.62;92396.66;5011388;28;20041;-89
2023/03/31 07:49:49;;;;;;;17.63;9.00;;;;;;;16.43;48.34;92386.72;5015853;28;20500;-89
2023/03/31 07:52:14;;;;;;;13.65;8.18;;;;;;;16.45;48.66;92395.06;4992476;28;20121;-91
2023/03/31 07:54:40;;;;;;;18.10;8.00;;;;;;;16.49;48.29;92391.31;5027902;28;20030;-89
2023/03/31 07:57:07;;;;;;;15.05;8.57;;;;;;;16.46;48.26;92395.81;5022801;28;20075;-89
2023/03/31 07:59:32;;;;;;;13.73;8.57;;;;;;;16.46;48.31;92372.00;5035467;28;20044;-90
2023/03/31 08:01:58;;;;;;;15.75;8.10;;;;;;;16.48;48.22;92376.19;5009641;28;20056;-90
2023/03/31 08:04:23;;;;;;;15.93;7.65;;;;;;;16.47;48.21;92361.81;5015729;28;20040;-90
2023/03/31 08:06:50;;;;;;;12.13;7.30;;;;;;;16.48;48.23;92374.22;4991244;28;20056;-89
2023/03/31 08:09:17;;;;;;;16.40;7.65;;;;;;;16.61;48.39;92368.78;5000363;28;20055;-89
2023/03/31 08:11:43;;;;;;;25.85;8.98;;;;;;;16.49;48.52;92355.84;5014741;28;20503;-89
2023/03/31 08:14:08;;;;;;;11.25;6.88;;;;;;;16.45;48.63;92348.00;5007418;28;20332;-92
2023/03/31 08:16:33;;;;;;;17.42;8.00;;;;;;;16.43;48.29;92345.06;5023848;28;20033;-89
2023/03/31 08:19:00;;;;;;;17.52;7.32;;;;;;;16.45;48.23;92343.25;4987235;28;20049;-89
2023/03/31 08:21:27;;;;;;;18.25;7.47;;;;;;;16.46;48.20;92336.53;5047429;28;20496;-90
2023/03/31 08:23:54;;;;;;;15.63;7.57;;;;;;;16.49;48.19;92340.22;4998037;28;20049;-91
2023/03/31 08:26:20;;;;;;;14.40;7.05;;;;;;;16.50;48.42;92328.03;5014549;28;20034;-89
2023/03/31 08:28:47;;;;;;;17.73;7.47;;;;;;;16.50;48.42;92321.84;5040610;28;20029;-90
2023/03/31 08:31:15;;;;;;;17.55;7.32;;;;;;;16.49;48.21;92323.13;4996944;28;20135;-90
2023/03/31 08:33:40;;;;;;;12.63;6.50;;;;;;;16.48;48.21;92327.84;4987072;28;20060;-89
2023/03/31 08:36:09;;;;;;;14.90;7.00;;;;;;;16.55;48.14;92318.28;5031244;28;20045;-92
2023/03/31 08:38:36;;;;;;;15.07;7.43;;;;;;;16.52;48.16;92325.53;5004737;28;20049;-90
2023/03/31 08:41:02;;;;;;;16.25;7.28;;;;;;;16.58;48.36;92325.44;4999837;28;20155;-89
2023/03/31 08:43:31;;;;;;;10.75;7.00;;;;;;;16.51;48.26;92329.53;5029740;28;20048;-91
2023/03/31 08:45:56;;;;;;;15.10;7.10;;;;;;;16.52;47.81;92322.81;5027647;28;20037;-89
2023/03/31 08:48:28;;;;;;;15.77;6.68;;;;;;;16.54;48.47;92322.28;5005711;28;20120;-89
2023/03/31 08:50:57;;;;;;;14.93;6.40;;;;;;;16.51;48.38;92334.97;4989612;28;20042;-90
2023/03/31 08:53:32;;;;;;;8.88;6.57;;;;;;;16.51;48.36;92317.88;4989902;28;20042;-89
2023/03/31 08:55:57;;;;;;;12.32;6.93;;;;;;;16.54;48.30;92317.56;4990983;28;20049;-89
2023/03/31 08:58:38;;;;;;;15.18;7.40;;;;;;;16.56;48.46;92319.75;4973015;28;20037;-89
2023/03/31 09:01:22;;;;;;;18.48;7.78;;;;;;;16.54;48.17;92319.56;5004717;28;20066;-89
2023/03/31 09:04:13;;;;;;;13.85;7.70;;;;;;;16.52;48.11;92328.25;5006994;28;20049;-89
2023/03/31 09:06:40;;;;;;;;;;;;;;;16.56;48.15;92345.06;5007140;28;20042;-91
2023/03/31 09:09:09;;;;;;;14.35;6.63;;;;;;;16.51;48.58;92317.88;5004637;28;20501;-92
2023/03/31 09:11:37;;;;;;;24.42;8.77;;;;;;;16.50;48.40;92365.50;4960486;28;20412;-91
2023/03/31 09:14:29;;;;;;;26.08;6.63;;;;;;;16.52;48.34;92371.91;4979741;28;20580;-90
2023/03/31 09:16:59;;;;;;;28.58;11.32;;;;;;;16.57;48.79;92332.88;5006591;28;20042;-91
2023/03/31 09:19:36;;;;;;;18.25;8.48;;;;;;;16.54;48.64;92361.22;4992690;28;20029;-90
2023/03/31 09:22:02;;;;;;;18.63;6.55;;;;;;;16.54;48.56;92388.50;4988248;28;20069;-90
2023/03/31 09:24:33;;;;;;;28.02;12.85;;;;;;;16.61;49.34;92357.88;4998161;28;20490;-88
2023/03/31 09:27:04;;;;;;;20.80;7.45;;;;;;;16.52;48.58;92393.00;5020782;28;20389;-89
2023/03/31 09:29:43;;;;;;;;;;;;;;;16.54;48.63;92423.97;5006908;28;20051;-89
2023/03/31 09:32:20;;;;;;;22.52;7.72;;;;;;;16.50;48.44;92390.78;5015027;28;20015;-89
2023/03/31 09:34:46;;;;;;;17.45;8.75;;;;;;;16.52;48.66;92384.81;4994596;28;20037;-89
2023/03/31 09:37:12;;;;;;;22.50;9.70;;;;;;;16.49;48.97;92381.13;4997142;28;20040;-91
2023/03/31 09:39:38;;;;;;;17.77;8.00;;;;;;;16.49;48.91;92369.47;4996203;28;20041;-90
2023/03/31 09:42:04;;;;;;;17.23;7.55;;;;;;;16.51;48.80;92364.97;4987284;28;20049;-91
2023/03/31 09:44:36;;;;;;;17.67;8.18;;;;;;;16.50;48.85;92343.69;4976141;28;20052;-89
2023/03/31 09:47:02;;;;;;;21.95;9.88;;;;;;;16.52;48.83;92338.44;5037523;28;20049;-89
2023/03/31 09:49:27;;;;;;;26.10;12.70;;;;;;;16.53;48.84;92301.72;4974575;28;20525;-89
2023/03/31 09:52:03;;;;;;;18.85;8.98;;;;;;;16.54;48.67;92305.91;4997993;28;20041;-90
2023/03/31 09:54:37;;;;;;;22.08;7.93;;;;;;;16.51;48.53;92293.31;5002741;28;20049;-89
2023/03/31 09:57:12;;;;;;;19.95;10.10;;;;;;;16.51;48.56;92263.31;4990821;28;20057;-90
2023/03/31 09:59:40;;;;;;;29.20;11.80;;;;;;;16.58;48.92;92251.78;5006773;28;20124;-90
2023/03/31 10:02:31;;;;;;;28.77;11.70;;;;;;;16.58;48.61;92233.41;4989921;28;20061;-89
2023/03/31 10:04:57;;;;;;;21.58;11.15;;;;;;;16.58;48.35;92232.69;4923134;29;20055;-90
2023/03/31 10:07:23;;;;;;;22.63;10.43;;;;;;;16.59;48.60;92231.41;4911666;29;20146;-89
2023/03/31 10:09:48;;;;;;;28.23;11.32;;;;;;;16.57;48.94;92209.38;4913190;29;20507;-90
2023/03/31 10:12:23;;;;;;;34.60;15.25;;;;;;;16.56;48.86;92205.91;4953222;28;20066;-90
2023/03/31 10:14:50;;;;;;;21.50;11.27;;;;;;;16.58;48.94;92205.38;4928265;29;20053;-90
2023/03/31 10:17:20;;;;;;;26.98;12.13;;;;;;;16.55;48.74;92218.09;4943491;29;20058;-90
2023/03/31 10:19:58;;;;;;;26.30;8.45;;;;;;;16.52;48.78;92207.50;4927753;29;20052;-90
2023/03/31 10:22:31;;;;;;;25.23;8.75;;;;;;;16.53;48.41;92203.50;4926521;29;20127;-91
2023/03/31 10:25:13;;;;;;;21.70;9.60;;;;;;;16.55;48.55;92201.00;4915153;29;20047;-89
2023/03/31 10:27:39;;;;;;;17.33;8.40;;;;;;;16.51;48.13;92184.19;4935333;29;20503;-89
2023/03/31 10:30:07;;;;;;;18.10;8.10;;;;;;;16.48;48.31;92188.72;4926721;29;20052;-90
2023/03/31 10:32:33;;;;;;;17.67;9.10;;;;;;;16.52;48.76;92178.22;4927651;29;20047;-91
2023/03/31 10:35:06;;;;;;;29.05;12.00;;;;;;;16.54;49.02;92180.41;4911376;29;20119;-92
2023/03/31 10:37:32;;;;;;;28.38;11.35;;;;;;;16.62;49.04;92186.72;4880517;29;20189;-89
2023/03/31 10:39:59;;;;;;;19.13;11.50;;;;;;;16.58;49.07;92195.22;4911055;29;20091;-91
2023/03/31 10:42:24;;;;;;;32.17;14.25;;;;;;;16.56;49.34;92203.19;4979401;28;20037;-90
2023/03/31 10:45:12;;;;;;;25.50;11.45;;;;;;;16.58;49.08;92178.84;4977151;28;20052;-90
2023/03/31 10:47:38;;;;;;;42.17;20.05;;;;;;;16.69;49.42;92183.34;4977993;28;20092;-89
2023/03/31 10:50:04;;;;;;;18.45;9.77;;;;;;;16.58;48.79;92199.94;4991312;28;20049;-91
2023/03/31 10:52:29;;;;;;;38.45;18.85;;;;;;;16.68;49.82;92198.25;4976941;28;20102;-90
2023/03/31 10:54:59;;;;;;;15.05;8.73;;;;;;;16.55;48.61;92201.00;4976850;28;20523;-89
2023/03/31 10:57:32;;;;;;;21.75;8.40;;;;;;;16.54;49.03;92199.53;4995107;28;20492;-89
2023/03/31 11:00:03;;;;;;;17.95;9.23;;;;;;;16.54;48.51;92167.50;4992650;28;20041;-90
2023/03/31 11:02:47;;;;;;;15.68;8.95;;;;;;;16.54;48.58;92159.34;5008876;28;20041;-91
2023/03/31 11:05:22;;;;;;;15.63;8.10;;;;;;;16.54;48.62;92174.97;5009268;28;20041;-90
2023/03/31 11:08:17;;;;;;;21.92;8.23;;;;;;;16.57;48.74;92163.00;4981224;28;20069;-90
2023/03/31 11:10:58;;;;;;;14.15;7.85;;;;;;;16.59;48.48;92160.47;5012499;28;20041;-90
2023/03/31 11:13:45;;;;;;;17.10;8.75;;;;;;;16.61;48.73;92155.22;5029912;28;20053;-89
2023/03/31 11:16:25;;;;;;;20.55;8.65;;;;;;;16.57;48.56;92127.53;5030516;28;20037;-89
2023/03/31 11:18:56;;;;;;;15.68;6.95;;;;;;;16.57;48.32;92135.72;5014326;28;20045;-91
2023/03/31 11:21:31;;;;;;;15.50;7.20;;;;;;;16.59;48.58;92138.66;4996011;28;20481;-90
2023/03/31 11:24:31;;;;;;;17.75;8.60;;;;;;;16.57;48.52;92131.00;5010957;28;20504;-90
2023/03/31 11:27:15;;;;;;;17.13;9.27;;;;;;;16.57;48.33;92117.34;5028742;28;20088;-88
2023/03/31 11:29:55;;;;;;;22.10;10.27;;;;;;;16.57;48.68;92113.91;5025068;28;20072;-88
2023/03/31 11:32:43;;;;;;;17.55;10.18;;;;;;;16.59;49.13;92111.38;4997833;28;20451;-89